• Join FlightAware (Why Join?)
  • Login
  • US Flag 
12:49AM EST


 

Airport Tracker/Info


-or-


 

Live Flight TrackerFlight Track Log ✈ AWE3988 ✈ 05-May-2014 ✈ KMHT - KPHL

Flight Track Log - Related Links

Times and Time Zones

All times are in EDT time to prevent confusion due to time zone crossing. See the AWE3988 flight status page for this flight to view local times or setup timezone preferences in your user account.

Time Position Orientation Groundspeed Altitude Reporting Facility
EDT Latitude Longitude Course Direction KTS MPH feet Rate Location/Type
03:56PM 42.9792 -71.4561 330° Northwest 170 196 3,100  Level Boston Center
03:57PM 43.0119 -71.5161 307° West 198 228 6,100 2,460 Climbing Boston Center
03:58PM 42.9380 -71.7913 279° West  Level FlightAware Approximate
03:58PM 43.0261 -71.6108 282° West 253 291 8,300  Level Boston Center
03:59PM 42.9500 -71.9106 270° West  Level FlightAware Approximate
03:59PM 43.0258 -71.7158 270° West 273 314 10,500  Level Boston Center
04:00PM 42.9500 -72.0312 270° West  Level FlightAware Approximate
04:00PM 43.0247 -71.8308 269° West 298 343 13,100  Level Boston Center
04:01PM 42.9501 -72.1517 270° West  Level FlightAware Approximate
04:01PM 43.0228 -71.9481 269° West 309 356 14,900  Level Boston Center
04:02PM 43.0208 -72.0811 269° West 323 372 17,100 1,920 Climbing Boston Center
04:04PM 43.0178 -72.2083 268° West 333 383 18,900 1,560 Climbing Boston Center
04:05PM 43.0167 -72.3353 269° West 344 396 20,400 1,560 Climbing Boston Center
04:06PM 43.0139 -72.4667 268° West 344 396 22,100 1,560 Climbing Boston Center
04:07PM 43.0114 -72.5997 269° West 349 402 23,600 900 Climbing Boston Center
04:08PM 43.0083 -72.7447 268° West 353 406 24,000 180 Climbing Boston Center
04:09PM 43.0047 -72.8789 268° West 355 409 24,000  Level Boston Center
04:10PM 43.0022 -73.0244 269° West 354 407 24,000  Level Boston Center
04:11PM 42.9986 -73.1656 268° West 366 421 24,000  Level Boston Center
04:12PM 42.9947 -73.3122 268° West 384 442 24,000  Level Boston Center
04:13PM 42.9353 -73.4542 240° Southwest 429 494 24,000  Level Boston Center
04:14PM 42.8639 -73.5867 234° Southwest 441 507 24,000  Level Boston Center
04:15PM 42.7917 -73.7211 234° Southwest 442 509 24,000  Level Boston Center
04:16PM 42.7203 -73.8553 234° Southwest 442 509 24,000  Level Boston Center
04:17PM 42.6414 -74.0217 237° Southwest 442 509 24,000  Level Boston Center
04:18PM 42.5739 -74.1597 236° Southwest 442 509 24,000  Level Boston Center
04:19PM 42.5064 -74.2978 236° Southwest 441 507 24,000  Level Boston Center
04:20PM 42.4333 -74.4444 236° Southwest 441 507 24,000  Level Boston Center
04:21PM 42.3658 -74.5811 236° Southwest 441 507 24,000  Level Boston Center
04:22PM 42.2983 -74.7153 236° Southwest 437 503 24,000 -360 Level Boston Center
04:23PM 42.2317 -74.8511 236° Southwest 434 499 23,300 -840 Descending Boston Center
04:24PM 42.1561 -74.9747 231° Southwest 436 502 22,300 -1,380 Descending Boston Center
04:25PM 42.0494 -75.0628 212° Southwest 449 517 20,500 -1,620 Descending Boston Center
04:26PM 41.9453 -75.1481 211° Southwest 447 514 19,000 -780 Descending Boston Center
04:27PM 41.8417 -75.2322 211° Southwest 441 507 19,000  Level Boston Center
04:28PM 41.7369 -75.3172 211° Southwest 440 506 19,000 -60 Level Boston Center
04:29PM 41.6358 -75.3986 211° Southwest 431 496 18,900 -1,380 Descending Boston Center
04:30PM 41.5153 -75.4958 211° Southwest 426 490 16,300 -2,340 Descending Boston Center
04:31PM 41.4147 -75.5767 211° Southwest 423 487 14,300 -1,980 Descending Boston Center
04:32PM 41.3203 -75.6525 211° Southwest 401 461 12,300 -1,200 Descending Boston Center
04:33PM 41.2167 -75.6872 194° South 400 460 11,900 -240 Descending Boston Center
04:34PM 41.1058 -75.6883 180° South 399 459 11,900  Level Boston Center
04:35PM 40.9944 -75.6875 180° South 398 458 11,900  Level Boston Center
04:36PM 40.8572 -75.6875 180° South 408 470 12,000 -240 Climbing New York Center
04:37PM 40.7503 -75.6497 165° South 403 464 11,500 -720 Descending New York Center
04:38PM 40.6656 -75.5861 150° Southeast 391 450 10,600 -780 Descending New York Center
04:39PM 40.5600 -75.5133 152° Southeast 391 450 10,000 -300 Descending New York Center
04:40PM 40.4914 -75.4622 150° Southeast 374 430 10,000 -720 Level New York Center
04:42PM 40.3500 -75.3833 157° South 303 349 8,200 -1,200 Descending Philadelphia TRACON
04:43PM 40.2833 -75.3500 159° South 274 315 7,100 -960 Descending Philadelphia TRACON
04:44PM 40.2167 -75.3000 150° Southeast 223 257 6,300 -960 Descending Philadelphia TRACON
04:45PM 40.1500 -75.2833 169° South 228 262 5,100 -1,200 Descending Philadelphia TRACON
04:46PM 40.1000 -75.2667 166° South 221 254 4,100 -600 Descending Philadelphia TRACON
04:47PM 40.0333 -75.2333 159° South 223 257 4,000 -60 Descending Philadelphia TRACON
04:48PM 39.9667 -75.2167 169° South 212 244 4,000  Level Philadelphia TRACON
04:49PM 39.9167 -75.1833 153° Southeast 211 243 4,100  Climbing Philadelphia TRACON
04:50PM 39.8667 -75.1500 153° Southeast 224 258 4,100 -660 Level Philadelphia TRACON
04:51PM 39.8000 -75.1333 169° South 216 249 2,900 -960 Descending Philadelphia TRACON
04:52PM 39.7667 -75.1500 201° Southwest 182 209 2,100 -540 Descending Philadelphia TRACON
04:53PM 39.8000 -75.2000 311° West 165 190 1,800 -660 Descending Philadelphia TRACON
04:54PM 39.8333 -75.2167 339° North 128 147 900 -1,020 Descending Philadelphia TRACON